createdAt,value
2023-01-11T00:02:50.619Z,100294.28
2023-01-11T00:07:56.929Z,100280.03
2023-01-11T00:13:03.029Z,100277.34
2023-01-11T00:18:08.004Z,100271.19
2023-01-11T00:23:11.932Z,100253.59
2023-01-11T00:28:18.586Z,100254.22
2023-01-11T00:33:24.166Z,100252.97
2023-01-11T00:38:47.120Z,100244.22
2023-01-11T00:44:09.588Z,100241.84
2023-01-11T00:49:12.755Z,100221.28
2023-01-11T00:54:15.994Z,100233.00
2023-01-11T00:59:20.575Z,100229.97
2023-01-11T01:04:23.705Z,100223.50
2023-01-11T01:09:27.457Z,100222.44
2023-01-11T01:14:33.870Z,100223.06
2023-01-11T01:19:39.460Z,100227.78
2023-01-11T01:24:42.512Z,100216.56
2023-01-11T01:29:47.128Z,100206.88
2023-01-11T01:34:50.212Z,100192.13
2023-01-11T01:39:53.396Z,100190.09
2023-01-11T01:45:01.093Z,100188.94
2023-01-11T01:50:09.033Z,100190.72
2023-01-11T01:55:17.611Z,100193.94
2023-01-11T02:00:23.663Z,100195.47
2023-01-11T02:05:27.673Z,100187.56
2023-01-11T02:10:30.758Z,100171.25
2023-01-11T02:15:36.695Z,100161.78
2023-01-11T02:21:10.701Z,100150.44
2023-01-11T02:26:59.295Z,100145.22
2023-01-11T02:32:14.981Z,100137.59
2023-01-11T02:37:29.005Z,100134.84
2023-01-11T02:42:59.006Z,100126.09
2023-01-11T02:48:12.949Z,100128.81
2023-01-11T02:53:19.905Z,100127.03
2023-01-11T02:58:26.708Z,100104.69
2023-01-11T03:03:31.273Z,100083.16
2023-01-11T03:09:11.424Z,100071.00
2023-01-11T03:14:24.042Z,100085.28
2023-01-11T03:19:35.921Z,100072.38
2023-01-11T03:24:44.835Z,100066.00
2023-01-11T03:29:53.719Z,100047.59
2023-01-11T03:35:13.053Z,100044.75
2023-01-11T03:40:20.422Z,100056.94
2023-01-11T03:45:24.052Z,100046.41
2023-01-11T03:50:30.863Z,100042.03
2023-01-11T03:55:39.197Z,100041.09
2023-01-11T04:00:43.174Z,100030.47
2023-01-11T04:05:54.413Z,100022.31
2023-01-11T04:10:57.833Z,100030.97
2023-01-11T04:16:01.722Z,100029.91
2023-01-11T04:21:06.716Z,100028.81
2023-01-11T04:26:09.832Z,100017.72
2023-01-11T04:31:13.172Z,100015.97
2023-01-11T04:36:29.021Z,100007.53
2023-01-11T04:41:49.453Z,99997.47
2023-01-11T04:46:52.672Z,100003.75
2023-01-11T04:52:03.246Z,99998.56
2023-01-11T04:57:08.166Z,99995.22
2023-01-11T05:02:11.278Z,99991.69
2023-01-11T05:07:15.763Z,99996.66
2023-01-11T05:12:22.624Z,99975.03
2023-01-11T05:17:26.266Z,99961.78
2023-01-11T05:22:31.012Z,99956.00
2023-01-11T05:27:34.865Z,99946.28
2023-01-11T05:32:38.203Z,99948.78
2023-01-11T05:37:42.658Z,99952.00
2023-01-11T05:42:47.560Z,99947.75
2023-01-11T05:47:54.544Z,99949.25
2023-01-11T05:52:59.462Z,99940.41
2023-01-11T05:58:02.976Z,99944.66
2023-01-11T06:03:07.338Z,99946.19
2023-01-11T06:08:12.424Z,99939.78
2023-01-11T06:13:30.795Z,99950.69
2023-01-11T06:18:37.180Z,99946.38
2023-01-11T06:23:44.776Z,99937.06
2023-01-11T06:28:51.788Z,99946.03
2023-01-11T06:33:54.975Z,99938.34
2023-01-11T06:38:59.609Z,99927.50
2023-01-11T06:44:02.966Z,99896.84
2023-01-11T06:49:06.084Z,99897.31
2023-01-11T06:54:10.732Z,99907.94
2023-01-11T06:59:14.084Z,99908.88
2023-01-11T07:04:18.827Z,99903.69
2023-01-11T07:09:23.524Z,99898.25
2023-01-11T07:14:26.834Z,99904.88
2023-01-11T07:19:30.061Z,99904.25
2023-01-11T07:24:34.630Z,99908.16
2023-01-11T07:29:37.817Z,99909.44
2023-01-11T07:34:41.052Z,99907.28
2023-01-11T07:39:46.734Z,99905.16
2023-01-11T07:44:49.936Z,99912.47
2023-01-11T07:49:53.455Z,99907.00
2023-01-11T07:55:02.746Z,99905.00
2023-01-11T08:00:07.167Z,99916.56
2023-01-11T08:05:11.196Z,99926.34
2023-01-11T08:10:16.411Z,99917.78
2023-01-11T08:15:20.167Z,99924.84
2023-01-11T08:20:27.132Z,99923.41
2023-01-11T08:25:32.827Z,99912.19
2023-01-11T08:30:37.155Z,99913.22
2023-01-11T08:35:40.610Z,99905.19
2023-01-11T08:40:45.148Z,99909.75
2023-01-11T08:45:48.292Z,99897.72
2023-01-11T08:50:51.438Z,99901.06
2023-01-11T08:55:55.986Z,99898.38
2023-01-11T09:01:00.213Z,99889.59
2023-01-11T09:06:03.628Z,99878.50
2023-01-11T09:11:28.123Z,99880.19
2023-01-11T09:16:31.352Z,99883.69
2023-01-11T09:21:34.450Z,99873.81
2023-01-11T09:26:40.172Z,99869.69
2023-01-11T09:31:43.311Z,99872.69
2023-01-11T09:36:48.746Z,99862.69
2023-01-11T09:42:27.197Z,99864.88
2023-01-11T09:47:36.923Z,99861.56
2023-01-11T09:52:43.756Z,99853.34
2023-01-11T09:57:59.588Z,99850.03
2023-01-11T10:03:36.609Z,99835.19
2023-01-11T10:18:41.725Z,99835.97
2023-01-11T10:20:01.861Z,99828.41
2023-01-11T10:25:16.990Z,99828.00
2023-01-11T10:30:41.784Z,99822.34
2023-01-11T10:36:10.531Z,99817.22
2023-01-11T10:41:26.602Z,99810.75
2023-01-11T10:46:33.491Z,99806.72
2023-01-11T10:51:41.314Z,99803.16
2023-01-11T10:57:05.212Z,99795.00
2023-01-11T11:02:29.281Z,99801.75
2023-01-11T11:07:42.873Z,99797.75
2023-01-11T11:12:55.597Z,99798.28
2023-01-11T11:18:00.747Z,99792.66
2023-01-11T11:23:04.771Z,99788.97
2023-01-11T11:28:09.802Z,99789.25
2023-01-11T11:33:21.370Z,99792.13
2023-01-11T11:38:26.296Z,99793.00
2023-01-11T11:43:29.523Z,99789.84
2023-01-11T11:48:35.660Z,99781.44
2023-01-11T11:53:44.275Z,99784.34
2023-01-11T11:58:48.186Z,99781.44
2023-01-11T12:03:54.616Z,99776.09
2023-01-11T12:09:01.369Z,99773.47
2023-01-11T12:14:18.225Z,99771.81
2023-01-11T12:19:31.448Z,99763.69
2023-01-11T12:24:34.723Z,99759.44
2023-01-11T12:30:14.616Z,99749.13
2023-01-11T12:35:37.286Z,99752.84
2023-01-11T12:40:50.956Z,99757.78
2023-01-11T12:46:04.556Z,99751.75
2023-01-11T12:51:25.236Z,99750.78
2023-01-11T12:56:52.087Z,99755.84
2023-01-11T13:02:05.803Z,99749.66
2023-01-11T13:07:21.170Z,99746.91
2023-01-11T13:12:31.687Z,99747.28
2023-01-11T13:17:41.124Z,99743.88
2023-01-11T13:22:51.031Z,99750.28
2023-01-11T13:27:56.560Z,99755.41
2023-01-11T13:33:06.043Z,99753.44
2023-01-11T13:38:23.179Z,99762.94
2023-01-11T13:43:33.741Z,99757.88
2023-01-11T13:48:43.682Z,99754.56
2023-01-11T13:53:54.720Z,99766.94
2023-01-11T13:59:04.070Z,99776.91
2023-01-11T14:04:11.619Z,99794.06
2023-01-11T14:09:35.240Z,99796.81
2023-01-11T14:15:00.919Z,99799.94
2023-01-11T14:20:12.833Z,99801.09
2023-01-11T14:25:23.523Z,99805.09
2023-01-11T14:30:45.579Z,99804.25
2023-01-11T14:36:09.155Z,99800.16
2023-01-11T14:41:46.749Z,99804.69
2023-01-11T14:47:04.157Z,99813.63
2023-01-11T14:52:12.725Z,99813.94
2023-01-11T14:57:40.808Z,99818.06
2023-01-11T15:02:44.088Z,99827.97
2023-01-11T15:07:51.816Z,99827.69
2023-01-11T15:12:59.212Z,99816.97
2023-01-11T15:18:25.627Z,99822.47
2023-01-11T15:23:38.730Z,99831.28
2023-01-11T15:28:50.477Z,99833.75
2023-01-11T15:33:55.831Z,99840.91
2023-01-11T15:39:04.199Z,99844.50
2023-01-11T15:44:38.641Z,99854.81
2023-01-11T15:50:08.458Z,99876.44
2023-01-11T15:55:49.404Z,99873.25
2023-01-11T16:01:21.879Z,99893.38
2023-01-11T16:06:34.503Z,99887.56
2023-01-11T16:11:48.065Z,99886.91
2023-01-11T16:16:55.846Z,99895.41
2023-01-11T16:22:02.470Z,99890.59
2023-01-11T16:27:06.096Z,99898.44
2023-01-11T16:32:21.796Z,99898.44
2023-01-11T16:37:29.656Z,99919.34
2023-01-11T16:42:40.811Z,99926.50
2023-01-11T16:48:05.769Z,99932.59
2023-01-11T16:53:14.968Z,99940.72
2023-01-11T16:58:27.060Z,99946.88
2023-01-11T17:03:35.043Z,99955.56
2023-01-11T17:08:39.617Z,99970.41
2023-01-11T17:14:12.599Z,99973.97
2023-01-11T17:19:19.998Z,99978.66
2023-01-11T17:24:27.524Z,99993.66
2023-01-11T17:29:40.653Z,99992.69
2023-01-11T17:34:52.433Z,99985.09
2023-01-11T17:39:56.365Z,99987.97
2023-01-11T17:45:14.968Z,100003.13
2023-01-11T17:50:37.985Z,100007.50
2023-01-11T17:55:52.117Z,100019.31
2023-01-11T18:01:18.624Z,100019.84
2023-01-11T18:06:33.112Z,100031.09
2023-01-11T18:11:40.480Z,100038.63
2023-01-11T18:16:57.147Z,100042.59
2023-01-11T18:22:01.994Z,100051.19
2023-01-11T18:27:18.822Z,100049.47
2023-01-11T18:32:22.287Z,100048.72
2023-01-11T18:37:26.919Z,100044.97
2023-01-11T18:42:32.963Z,100061.97
2023-01-11T18:47:36.605Z,100054.78
2023-01-11T18:52:43.971Z,100070.66
2023-01-11T18:57:52.189Z,100087.44
2023-01-11T19:02:57.670Z,100087.06
2023-01-11T19:08:02.425Z,100099.06
2023-01-11T19:13:05.549Z,100105.72
2023-01-11T19:18:08.743Z,100102.19
2023-01-11T19:23:13.230Z,100103.09
2023-01-11T19:28:29.042Z,100101.69
2023-01-11T19:33:33.811Z,100112.34
2023-01-11T19:38:44.935Z,100110.69
2023-01-11T19:43:56.863Z,100117.72
2023-01-11T19:49:00.455Z,100119.63
2023-01-11T19:54:06.320Z,100122.59
2023-01-11T19:59:09.651Z,100132.31
2023-01-11T20:04:13.498Z,100133.38
2023-01-11T20:09:19.753Z,100145.84
2023-01-11T20:14:22.977Z,100145.28
2023-01-11T20:19:29.697Z,100145.75
2023-01-11T20:24:34.193Z,100157.63
2023-01-11T20:29:37.362Z,100159.09
2023-01-11T20:34:40.718Z,100168.22
2023-01-11T20:39:45.298Z,100171.28
2023-01-11T20:44:48.444Z,100172.03
2023-01-11T20:49:51.614Z,100161.25
2023-01-11T20:54:56.305Z,100160.66
2023-01-11T20:59:59.437Z,100170.38
2023-01-11T21:05:04.498Z,100159.59
2023-01-11T21:10:10.878Z,100168.34
2023-01-11T21:15:14.158Z,100176.31
2023-01-11T21:20:18.448Z,100179.00
2023-01-11T21:25:23.135Z,100169.53
2023-01-11T21:30:26.298Z,100165.38
2023-01-11T21:35:29.561Z,100165.75
2023-01-11T21:40:34.243Z,100167.53
2023-01-11T21:45:37.425Z,100179.00
2023-01-11T21:50:40.782Z,100176.63
2023-01-11T21:55:45.460Z,100176.06
2023-01-11T22:00:48.636Z,100171.31
2023-01-11T22:05:52.468Z,100182.69
2023-01-11T22:11:01.249Z,100184.59
2023-01-11T22:16:06.441Z,100174.50
2023-01-11T22:21:12.464Z,100189.66
2023-01-11T22:26:18.971Z,100206.44
2023-01-11T22:31:22.341Z,100204.22
2023-01-11T22:36:26.539Z,100200.28
2023-01-11T22:41:31.387Z,100198.25
2023-01-11T22:46:34.544Z,100197.00
2023-01-11T22:51:38.008Z,100179.25
2023-01-11T22:56:42.868Z,100177.84
2023-01-11T23:01:46.027Z,100167.75
2023-01-11T23:06:49.344Z,100169.03
2023-01-11T23:12:11.366Z,100179.78
2023-01-11T23:17:14.718Z,100177.63
2023-01-11T23:22:18.147Z,100168.28
2023-01-11T23:27:22.705Z,100161.31
2023-01-11T23:32:25.912Z,100172.66
2023-01-11T23:37:29.214Z,100159.66
2023-01-11T23:42:35.594Z,100170.16
2023-01-11T23:47:38.988Z,100166.84
2023-01-11T23:52:42.266Z,100166.03
2023-01-11T23:58:06.935Z,100180.09
